Time;durP1;ratioP1;P1;durP2;ratioP2;P2;SDS_P1;SDS_P2;PMS_P1;PMS_P2;Temp;Humidity;BMP_temperature;BMP_pressure;BME280_temperature;BME280_humidity;BME280_pressure;Samples;Min_cycle;Max_cycle;Signal;HPM_P1;HPM_P2
2023/03/08 00:00:49;;;;;;;15.45;8.82;;;;;;;;;;5095908;28;20019;-72
2023/03/08 00:03:35;;;;;;;15.20;8.57;;;;;;;;;;5095811;28;20062;-72
2023/03/08 00:06:21;;;;;;;17.17;9.00;;;;;;;;;;5097145;27;20113;-72
2023/03/08 00:09:06;;;;;;;14.85;7.53;;;;;;;;;;5096312;28;20081;-72
2023/03/08 00:11:52;;;;;;;12.57;7.75;;;;;;;;;;5080822;28;20031;-71
2023/03/08 00:14:37;;;;;;;19.98;12.40;;;;;;;;;;5079658;28;20028;-72
2023/03/08 00:17:23;;;;;;;23.13;14.82;;;;;;;;;;5096926;28;20022;-71
2023/03/08 00:20:10;;;;;;;26.73;16.17;;;;;;;;;;5095224;28;20077;-72
2023/03/08 00:22:55;;;;;;;28.27;18.75;;;;;;;;;;5094802;28;20024;-72
2023/03/08 00:25:41;;;;;;;30.73;19.85;;;;;;;;;;5094169;28;20012;-73
2023/03/08 00:28:26;;;;;;;35.25;21.38;;;;;;;;;;5079715;28;20020;-72
2023/03/08 00:31:12;;;;;;;34.08;21.17;;;;;;;;;;5097504;28;20023;-72
2023/03/08 00:33:58;;;;;;;33.15;21.75;;;;;;;;;;5105770;28;20020;-73
2023/03/08 00:36:44;;;;;;;36.08;21.33;;;;;;;;;;5096441;28;20456;-72
2023/03/08 00:39:29;;;;;;;37.00;22.42;;;;;;;;;;5080324;28;20016;-72
2023/03/08 00:42:15;;;;;;;33.63;21.42;;;;;;;;;;5094515;28;20098;-72
2023/03/08 00:45:00;;;;;;;37.50;23.35;;;;;;;;;;5094583;28;20019;-72
2023/03/08 00:47:46;;;;;;;36.65;22.45;;;;;;;;;;5080370;28;20050;-72
2023/03/08 00:50:31;;;;;;;35.38;21.58;;;;;;;;;;5094956;28;20016;-72
2023/03/08 00:53:17;;;;;;;32.35;20.88;;;;;;;;;;5094491;28;20020;-72
2023/03/08 00:56:03;;;;;;;30.05;19.02;;;;;;;;;;5094063;28;20074;-73
2023/03/08 00:58:48;;;;;;;27.33;16.33;;;;;;;;;;5098021;28;20020;-73
2023/03/08 01:01:34;;;;;;;26.58;16.27;;;;;;;;;;5081109;28;20094;-73
2023/03/08 01:04:20;;;;;;;23.73;14.27;;;;;;;;;;5097473;28;20023;-71
2023/03/08 01:07:05;;;;;;;20.50;13.82;;;;;;;;;;5101600;28;20056;-71
2023/03/08 01:09:53;;;;;;;21.35;12.90;;;;;;;;;;5101088;28;20020;-72
2023/03/08 01:12:38;;;;;;;24.50;14.05;;;;;;;;;;5097317;28;20022;-72
2023/03/08 01:15:24;;;;;;;21.98;12.93;;;;;;;;;;5095403;28;20062;-73
2023/03/08 01:18:10;;;;;;;15.23;10.93;;;;;;;;;;5095455;28;20023;-71
2023/03/08 01:21:00;;;;;;;15.38;10.20;;;;;;;;;;5079771;28;20032;-73
2023/03/08 01:23:45;;;;;;;14.00;9.75;;;;;;;;;;5079932;28;20028;-71
2023/03/08 01:26:31;;;;;;;15.63;9.30;;;;;;;;;;5080631;28;20035;-72
2023/03/08 01:29:17;;;;;;;18.50;9.10;;;;;;;;;;5095369;28;20103;-73
2023/03/08 01:32:02;;;;;;;16.75;8.98;;;;;;;;;;5095056;28;20437;-72
2023/03/08 01:34:48;;;;;;;14.63;8.05;;;;;;;;;;5094941;28;20052;-72
2023/03/08 01:37:34;;;;;;;12.82;7.18;;;;;;;;;;5093875;28;20400;-72
2023/03/08 01:40:20;;;;;;;11.40;6.65;;;;;;;;;;5096285;28;20032;-72
2023/03/08 01:43:25;;;;;;;10.13;6.75;;;;;;;;;;5098052;28;20034;-72
2023/03/08 01:46:29;;;;;;;11.23;6.57;;;;;;;;;;5084325;28;20102;-72
2023/03/08 01:49:20;;;;;;;10.88;6.32;;;;;;;;;;5098925;28;20030;-72
2023/03/08 01:52:17;;;;;;;9.93;6.18;;;;;;;;;;5097563;28;20079;-72
2023/03/08 01:55:05;;;;;;;9.82;6.05;;;;;;;;;;5097635;28;20118;-72
2023/03/08 01:57:53;;;;;;;10.80;6.20;;;;;;;;;;5097192;28;20393;-72
2023/03/08 02:00:38;;;;;;;12.75;6.63;;;;;;;;;;5099312;28;20078;-70
2023/03/08 02:03:24;;;;;;;12.43;6.20;;;;;;;;;;5101480;28;20089;-73
2023/03/08 02:06:11;;;;;;;10.85;6.53;;;;;;;;;;5107260;28;20044;-70
2023/03/08 02:08:57;;;;;;;9.93;6.30;;;;;;;;;;5110301;28;20524;-71
2023/03/08 02:11:43;;;;;;;10.10;6.35;;;;;;;;;;5110949;28;20027;-70
2023/03/08 02:14:28;;;;;;;10.38;6.32;;;;;;;;;;5111925;28;20024;-71
2023/03/08 02:17:14;;;;;;;9.18;6.00;;;;;;;;;;5107963;28;20020;-73
2023/03/08 02:20:09;;;;;;;9.68;6.28;;;;;;;;;;5101836;28;20012;-73
2023/03/08 02:22:54;;;;;;;10.60;6.20;;;;;;;;;;5092593;28;20024;-72
2023/03/08 02:25:41;;;;;;;10.45;6.32;;;;;;;;;;5105791;28;20027;-72
2023/03/08 02:28:27;;;;;;;10.65;5.72;;;;;;;;;;5105843;28;20016;-72
2023/03/08 02:31:13;;;;;;;16.05;5.95;;;;;;;;;;5092066;28;20040;-72
2023/03/08 02:33:58;;;;;;;8.02;5.90;;;;;;;;;;5107989;28;20015;-72
2023/03/08 02:36:44;;;;;;;10.80;5.88;;;;;;;;;;5109361;28;20016;-71
2023/03/08 02:39:30;;;;;;;9.73;6.00;;;;;;;;;;5108634;28;20072;-70
2023/03/08 02:42:15;;;;;;;9.13;5.38;;;;;;;;;;5112111;28;20371;-72
2023/03/08 02:45:01;;;;;;;9.23;5.22;;;;;;;;;;5109974;28;20407;-71
2023/03/08 02:47:46;;;;;;;9.60;5.18;;;;;;;;;;5094888;28;20012;-70
2023/03/08 02:50:32;;;;;;;9.80;5.50;;;;;;;;;;5110413;28;20016;-71
2023/03/08 02:53:18;;;;;;;8.35;5.30;;;;;;;;;;5109623;28;20035;-72
2023/03/08 02:56:03;;;;;;;9.35;4.80;;;;;;;;;;5112797;28;20069;-71
2023/03/08 02:58:49;;;;;;;8.27;5.65;;;;;;;;;;5109788;28;20020;-70
2023/03/08 03:01:35;;;;;;;10.95;5.32;;;;;;;;;;5109389;28;20031;-70
2023/03/08 03:04:20;;;;;;;9.88;5.45;;;;;;;;;;5110235;28;20383;-71
2023/03/08 03:07:06;;;;;;;7.15;5.20;;;;;;;;;;5106388;28;20051;-72
2023/03/08 03:09:52;;;;;;;7.13;5.10;;;;;;;;;;5101407;28;20027;-72
2023/03/08 03:12:38;;;;;;;9.32;5.78;;;;;;;;;;5099647;28;20357;-71
2023/03/08 03:15:23;;;;;;;8.82;5.60;;;;;;;;;;5099266;28;20405;-72
2023/03/08 03:18:09;;;;;;;8.57;5.60;;;;;;;;;;5109641;28;20028;-72
2023/03/08 03:20:54;;;;;;;9.73;5.57;;;;;;;;;;5102103;28;20109;-72
2023/03/08 03:23:40;;;;;;;8.00;5.07;;;;;;;;;;5098106;28;20038;-73
2023/03/08 03:26:26;;;;;;;9.05;5.45;;;;;;;;;;5098296;28;20028;-73
2023/03/08 03:29:11;;;;;;;9.70;5.93;;;;;;;;;;5081596;28;20034;-72
2023/03/08 03:31:57;;;;;;;7.75;5.38;;;;;;;;;;5083549;28;20022;-72
2023/03/08 03:34:42;;;;;;;10.02;6.40;;;;;;;;;;5093041;28;20054;-72
2023/03/08 03:37:28;;;;;;;9.30;5.90;;;;;;;;;;5111443;28;20016;-72
2023/03/08 03:40:14;;;;;;;9.00;6.00;;;;;;;;;;5093498;28;20039;-72
2023/03/08 03:42:59;;;;;;;11.15;6.43;;;;;;;;;;5099488;28;20375;-72
2023/03/08 03:45:53;;;;;;;10.20;5.72;;;;;;;;;;5111312;28;20024;-72
2023/03/08 03:48:39;;;;;;;11.88;6.60;;;;;;;;;;5114622;28;20023;-72
2023/03/08 03:51:24;;;;;;;10.07;6.40;;;;;;;;;;5115882;28;20102;-72
2023/03/08 03:54:10;;;;;;;9.63;6.05;;;;;;;;;;5101313;28;20019;-72
2023/03/08 03:56:57;;;;;;;9.73;6.38;;;;;;;;;;5114577;28;20321;-72
2023/03/08 03:59:42;;;;;;;9.05;5.97;;;;;;;;;;5115110;28;20008;-71
2023/03/08 04:02:28;;;;;;;10.95;6.03;;;;;;;;;;5115119;28;20028;-71
2023/03/08 04:05:13;;;;;;;10.23;6.55;;;;;;;;;;5113705;28;20059;-72
2023/03/08 04:07:59;;;;;;;10.68;6.45;;;;;;;;;;5113651;28;20050;-71
2023/03/08 04:10:45;;;;;;;10.75;6.72;;;;;;;;;;5110583;28;20051;-71
2023/03/08 04:13:30;;;;;;;10.57;6.28;;;;;;;;;;5115476;28;20008;-72
2023/03/08 04:16:17;;;;;;;10.23;6.55;;;;;;;;;;5093942;28;20352;-72
2023/03/08 04:19:04;;;;;;;12.38;6.95;;;;;;;;;;5116055;28;20031;-72
2023/03/08 04:21:50;;;;;;;11.60;7.00;;;;;;;;;;5094401;28;20054;-73
2023/03/08 04:24:35;;;;;;;11.55;6.88;;;;;;;;;;5101728;28;20040;-73
2023/03/08 04:27:21;;;;;;;12.10;6.78;;;;;;;;;;5096907;28;20020;-72
2023/03/08 04:30:07;;;;;;;11.88;7.00;;;;;;;;;;5096465;28;20040;-72
2023/03/08 04:32:52;;;;;;;12.70;7.03;;;;;;;;;;5095645;28;20013;-72
2023/03/08 04:35:38;;;;;;;13.98;7.63;;;;;;;;;;5080874;28;20451;-73
2023/03/08 04:38:24;;;;;;;13.30;7.60;;;;;;;;;;5094353;28;20107;-72
2023/03/08 04:41:12;;;;;;;14.02;7.15;;;;;;;;;;5096024;28;20016;-72
2023/03/08 04:43:58;;;;;;;9.32;6.57;;;;;;;;;;5095713;28;20056;-73
2023/03/08 04:46:43;;;;;;;12.90;7.15;;;;;;;;;;5096308;28;20387;-73
2023/03/08 04:49:29;;;;;;;12.98;7.45;;;;;;;;;;5095514;28;20455;-73
2023/03/08 04:52:14;;;;;;;11.75;6.85;;;;;;;;;;5081421;28;20028;-72
2023/03/08 04:55:00;;;;;;;11.52;7.22;;;;;;;;;;5095614;28;20016;-72
2023/03/08 04:57:45;;;;;;;12.68;7.38;;;;;;;;;;5095459;28;20158;-72
2023/03/08 05:00:31;;;;;;;15.73;7.22;;;;;;;;;;5095223;28;20016;-72
2023/03/08 05:03:17;;;;;;;10.35;6.55;;;;;;;;;;5096856;28;20084;-72
2023/03/08 05:06:02;;;;;;;10.52;6.72;;;;;;;;;;5095780;28;20348;-72
2023/03/08 05:08:48;;;;;;;12.35;6.97;;;;;;;;;;5096365;28;20024;-72
2023/03/08 05:11:33;;;;;;;12.50;6.70;;;;;;;;;;5081176;28;20020;-72
2023/03/08 05:14:20;;;;;;;11.30;6.82;;;;;;;;;;5081504;28;20462;-72
2023/03/08 05:17:06;;;;;;;12.43;7.15;;;;;;;;;;5096417;28;20016;-72
2023/03/08 05:19:51;;;;;;;16.02;7.38;;;;;;;;;;5095162;28;20044;-73
2023/03/08 05:22:37;;;;;;;14.77;7.75;;;;;;;;;;5080647;28;20063;-73
2023/03/08 05:25:23;;;;;;;12.25;6.68;;;;;;;;;;5095265;28;20309;-71
2023/03/08 05:28:08;;;;;;;16.08;7.40;;;;;;;;;;5095196;28;20406;-71
2023/03/08 05:31:20;;;;;;;12.32;6.85;;;;;;;;;;5095440;28;20035;-72
2023/03/08 05:34:08;;;;;;;15.82;6.90;;;;;;;;;;5080684;28;20093;-71
2023/03/08 05:36:54;;;;;;;9.80;6.00;;;;;;;;;;5094872;28;20020;-71
2023/03/08 05:39:40;;;;;;;20.20;7.40;;;;;;;;;;5094288;28;20421;-72
2023/03/08 05:42:26;;;;;;;12.80;6.72;;;;;;;;;;5093762;28;20034;-72
2023/03/08 05:45:12;;;;;;;9.82;6.13;;;;;;;;;;5095447;28;20028;-71
2023/03/08 05:47:57;;;;;;;15.75;7.10;;;;;;;;;;5080965;28;20042;-72
2023/03/08 05:50:43;;;;;;;12.40;6.68;;;;;;;;;;5080895;28;20016;-71
2023/03/08 05:53:28;;;;;;;11.00;6.30;;;;;;;;;;5080308;28;20058;-72
2023/03/08 05:56:18;;;;;;;16.05;6.47;;;;;;;;;;5094565;28;20459;-71
2023/03/08 05:59:04;;;;;;;12.55;6.38;;;;;;;;;;5079498;28;20020;-71
2023/03/08 06:01:49;;;;;;;19.95;7.20;;;;;;;;;;5093351;28;20440;-71
2023/03/08 06:04:35;;;;;;;11.73;7.00;;;;;;;;;;5093948;28;20062;-70
2023/03/08 06:07:20;;;;;;;18.73;8.18;;;;;;;;;;5077654;28;20127;-71
2023/03/08 06:10:06;;;;;;;17.98;8.27;;;;;;;;;;5094271;28;20213;-70
2023/03/08 06:12:52;;;;;;;18.08;8.43;;;;;;;;;;5093604;28;20024;-70
2023/03/08 06:15:37;;;;;;;19.30;8.32;;;;;;;;;;5093193;28;20104;-69
2023/03/08 06:18:24;;;;;;;17.15;8.63;;;;;;;;;;5094955;28;20077;-71
2023/03/08 06:21:11;;;;;;;24.67;9.38;;;;;;;;;;5080345;28;20024;-71
2023/03/08 06:23:56;;;;;;;18.17;8.32;;;;;;;;;;5094843;28;20422;-71
2023/03/08 06:26:42;;;;;;;12.40;6.28;;;;;;;;;;5078480;28;20034;-70
2023/03/08 06:29:27;;;;;;;14.88;6.00;;;;;;;;;;5081521;28;20020;-70
2023/03/08 06:32:13;;;;;;;13.02;6.78;;;;;;;;;;5098388;28;20012;-72
2023/03/08 06:34:59;;;;;;;13.88;6.60;;;;;;;;;;5098866;28;20062;-71
2023/03/08 06:37:44;;;;;;;25.25;11.63;;;;;;;;;;5097359;28;20093;-72
2023/03/08 06:40:30;;;;;;;17.33;8.30;;;;;;;;;;5081560;28;20093;-72
2023/03/08 06:43:16;;;;;;;16.88;7.80;;;;;;;;;;5092315;28;20020;-70
2023/03/08 06:46:02;;;;;;;11.68;6.85;;;;;;;;;;5100061;28;20478;-71
2023/03/08 06:48:48;;;;;;;10.52;6.05;;;;;;;;;;5097687;28;20031;-71
2023/03/08 06:51:36;;;;;;;8.68;5.40;;;;;;;;;;5097294;28;20031;-71
2023/03/08 06:54:23;;;;;;;9.85;5.25;;;;;;;;;;5082018;28;20356;-70
2023/03/08 06:57:08;;;;;;;11.07;5.15;;;;;;;;;;5082468;28;20105;-72
2023/03/08 06:59:54;;;;;;;9.25;4.88;;;;;;;;;;5098399;28;20058;-70
2023/03/08 07:02:39;;;;;;;11.25;7.03;;;;;;;;;;5097393;28;20028;-72
2023/03/08 07:05:25;;;;;;;12.00;5.35;;;;;;;;;;5097640;28;20039;-72
2023/03/08 07:08:11;;;;;;;9.98;4.75;;;;;;;;;;5096844;28;20048;-73
2023/03/08 07:10:57;;;;;;;9.15;5.05;;;;;;;;;;5097700;28;20016;-71
2023/03/08 07:13:43;;;;;;;18.27;9.75;;;;;;;;;;5096175;28;20452;-71
2023/03/08 07:16:28;;;;;;;44.65;12.80;;;;;;;;;;5096019;28;20050;-69
2023/03/08 07:19:14;;;;;;;11.48;6.82;;;;;;;;;;5097161;28;20034;-71
2023/03/08 07:21:59;;;;;;;8.60;4.60;;;;;;;;;;5097045;28;20376;-72
2023/03/08 07:24:46;;;;;;;10.65;4.40;;;;;;;;;;5097777;28;20020;-70
2023/03/08 07:27:31;;;;;;;7.65;4.32;;;;;;;;;;5081878;28;20020;-72
2023/03/08 07:30:17;;;;;;;14.05;5.03;;;;;;;;;;5081986;28;20016;-72
2023/03/08 07:33:03;;;;;;;8.40;4.47;;;;;;;;;;5095404;28;20034;-71
2023/03/08 07:35:48;;;;;;;9.25;5.20;;;;;;;;;;5096349;28;20364;-70
2023/03/08 07:38:34;;;;;;;34.53;20.88;;;;;;;;;;5080774;28;20399;-71
2023/03/08 07:41:19;;;;;;;9.60;4.45;;;;;;;;;;5095452;28;20103;-72
2023/03/08 07:44:05;;;;;;;8.23;5.15;;;;;;;;;;5095363;28;20012;-70
2023/03/08 07:46:50;;;;;;;9.35;5.40;;;;;;;;;;5095655;28;20088;-71
2023/03/08 07:49:36;;;;;;;9.98;5.60;;;;;;;;;;5096826;28;20024;-71
2023/03/08 07:52:25;;;;;;;10.65;5.28;;;;;;;;;;5096208;28;20023;-70
2023/03/08 07:55:11;;;;;;;10.07;5.25;;;;;;;;;;5082428;28;20046;-70
2023/03/08 07:57:57;;;;;;;8.95;4.82;;;;;;;;;;5082995;28;20024;-70
2023/03/08 08:00:42;;;;;;;10.52;5.43;;;;;;;;;;5095126;28;20028;-71
2023/03/08 08:03:28;;;;;;;8.98;5.50;;;;;;;;;;5094544;28;20017;-71
2023/03/08 08:06:14;;;;;;;8.52;5.57;;;;;;;;;;5094736;28;20075;-70
2023/03/08 08:08:59;;;;;;;9.10;5.30;;;;;;;;;;5095504;28;20031;-69
2023/03/08 08:11:45;;;;;;;9.45;5.55;;;;;;;;;;5080491;28;20457;-71
2023/03/08 08:14:31;;;;;;;9.10;4.97;;;;;;;;;;5095885;28;20024;-71
2023/03/08 08:17:17;;;;;;;11.73;4.95;;;;;;;;;;5079878;28;20016;-71
2023/03/08 08:20:05;;;;;;;9.10;5.45;;;;;;;;;;5095464;28;20023;-71
2023/03/08 08:22:52;;;;;;;8.70;5.20;;;;;;;;;;5095658;28;20166;-71
2023/03/08 08:25:38;;;;;;;7.05;4.60;;;;;;;;;;5081034;28;20051;-71
2023/03/08 08:28:24;;;;;;;7.75;4.47;;;;;;;;;;5095586;28;20114;-71
2023/03/08 08:31:11;;;;;;;7.90;4.13;;;;;;;;;;5098165;28;20322;-71
2023/03/08 08:33:58;;;;;;;6.57;3.70;;;;;;;;;;5095877;28;20027;-71
2023/03/08 08:36:43;;;;;;;6.38;3.80;;;;;;;;;;5094586;28;20024;-70
2023/03/08 08:39:29;;;;;;;8.50;4.18;;;;;;;;;;5080552;28;20440;-71
2023/03/08 08:42:14;;;;;;;6.40;4.28;;;;;;;;;;5094681;28;20040;-71
2023/03/08 08:45:00;;;;;;;8.00;4.60;;;;;;;;;;5095091;28;20020;-70
2023/03/08 08:47:45;;;;;;;10.05;5.03;;;;;;;;;;5094561;28;20020;-71
2023/03/08 08:50:31;;;;;;;7.47;4.28;;;;;;;;;;5096015;28;20012;-70
2023/03/08 08:53:17;;;;;;;7.93;3.90;;;;;;;;;;5095610;28;20322;-70
2023/03/08 08:56:19;;;;;;;7.07;4.13;;;;;;;;;;5079360;28;20020;-70
2023/03/08 08:59:05;;;;;;;7.45;4.13;;;;;;;;;;5094869;28;20399;-71
2023/03/08 09:01:50;;;;;;;13.35;4.47;;;;;;;;;;5094891;28;20504;-71
2023/03/08 09:04:36;;;;;;;5.45;4.03;;;;;;;;;;5095782;28;20031;-70
2023/03/08 09:07:21;;;;;;;12.48;5.38;;;;;;;;;;5078347;28;20432;-71
2023/03/08 09:10:08;;;;;;;9.27;4.47;;;;;;;;;;5060494;28;20072;-71
2023/03/08 09:12:54;;;;;;;18.77;6.07;;;;;;;;;;5059210;28;20028;-70
2023/03/08 09:15:40;;;;;;;7.28;4.70;;;;;;;;;;5073737;28;20349;-70
2023/03/08 09:18:25;;;;;;;8.02;4.80;;;;;;;;;;5059728;28;20055;-70
2023/03/08 09:21:11;;;;;;;13.30;5.57;;;;;;;;;;5074730;28;20426;-71
2023/03/08 09:24:02;;;;;;;7.15;4.53;;;;;;;;;;5059339;28;20066;-71
2023/03/08 09:26:48;;;;;;;8.52;4.60;;;;;;;;;;5060309;28;20017;-71
2023/03/08 09:29:35;;;;;;;24.08;14.75;;;;;;;;;;5058887;28;20108;-70
2023/03/08 09:32:20;;;;;;;23.55;12.27;;;;;;;;;;5059931;28;20020;-71
2023/03/08 09:35:06;;;;;;;13.63;8.57;;;;;;;;;;5073673;28;20021;-71
2023/03/08 09:37:52;;;;;;;4.78;3.10;;;;;;;;;;5074678;28;20021;-71
2023/03/08 09:40:43;;;;;;;8.02;3.72;;;;;;;;;;5074596;28;20028;-70
2023/03/08 09:43:36;;;;;;;6.20;3.75;;;;;;;;;;5074936;28;20020;-72
2023/03/08 09:46:27;;;;;;;6.35;3.03;;;;;;;;;;5074532;28;20172;-70
2023/03/08 09:49:14;;;;;;;5.70;3.15;;;;;;;;;;5058636;28;20028;-71
2023/03/08 09:52:06;;;;;;;4.80;2.90;;;;;;;;;;5059546;28;20025;-71
2023/03/08 09:54:52;;;;;;;5.50;2.85;;;;;;;;;;5073765;28;20013;-71
2023/03/08 09:57:40;;;;;;;6.82;3.22;;;;;;;;;;5073885;28;20052;-70
2023/03/08 10:00:33;;;;;;;5.57;3.50;;;;;;;;;;5073658;28;20039;-71
2023/03/08 10:03:30;;;;;;;7.20;3.50;;;;;;;;;;5078617;28;20024;-70
2023/03/08 10:06:25;;;;;;;7.55;3.42;;;;;;;;;;5083829;28;20076;-71
2023/03/08 10:09:26;;;;;;;4.13;2.90;;;;;;;;;;5098520;28;20028;-70
2023/03/08 10:12:28;;;;;;;8.60;2.97;;;;;;;;;;5098575;28;20341;-71
2023/03/08 10:15:16;;;;;;;11.40;3.70;;;;;;;;;;5098685;28;20024;-71
2023/03/08 10:18:12;;;;;;;6.55;3.22;;;;;;;;;;5098244;28;20019;-71
2023/03/08 10:20:59;;;;;;;5.97;3.45;;;;;;;;;;5097395;28;20024;-71
2023/03/08 10:23:46;;;;;;;7.65;3.75;;;;;;;;;;5098100;28;20448;-71
2023/03/08 10:26:32;;;;;;;6.82;3.10;;;;;;;;;;5097146;28;20111;-71
2023/03/08 10:29:18;;;;;;;7.40;3.30;;;;;;;;;;5097252;28;20398;-70
2023/03/08 10:32:03;;;;;;;4.55;3.08;;;;;;;;;;5097990;28;20019;-71
2023/03/08 10:34:50;;;;;;;4.72;3.03;;;;;;;;;;5096941;28;20437;-70
2023/03/08 10:37:36;;;;;;;6.97;3.15;;;;;;;;;;5083506;28;20016;-72
2023/03/08 10:40:21;;;;;;;4.80;2.75;;;;;;;;;;5083734;28;20044;-70
2023/03/08 10:43:13;;;;;;;5.43;2.90;;;;;;;;;;5097586;28;20016;-71
2023/03/08 10:46:01;;;;;;;7.65;3.20;;;;;;;;;;5097564;28;20028;-70
2023/03/08 10:48:47;;;;;;;4.85;3.00;;;;;;;;;;5097118;28;20368;-70
2023/03/08 10:51:33;;;;;;;6.78;3.45;;;;;;;;;;5096339;28;20024;-71
2023/03/08 10:54:18;;;;;;;11.73;3.30;;;;;;;;;;5096701;28;20337;-72
2023/03/08 10:57:04;;;;;;;8.95;4.00;;;;;;;;;;5097182;28;20020;-71
2023/03/08 10:59:49;;;;;;;7.43;4.10;;;;;;;;;;5082152;28;20020;-70
2023/03/08 11:02:35;;;;;;;6.15;3.47;;;;;;;;;;5096567;28;20406;-71
2023/03/08 11:05:22;;;;;;;6.25;3.75;;;;;;;;;;5097812;28;20067;-71
2023/03/08 11:08:15;;;;;;;4.38;3.03;;;;;;;;;;5077208;28;20389;-71
2023/03/08 11:11:01;;;;;;;7.80;3.03;;;;;;;;;;5076798;28;20171;-70
2023/03/08 11:13:47;;;;;;;5.97;3.30;;;;;;;;;;5075979;28;20033;-71
2023/03/08 11:16:41;;;;;;;6.55;3.03;;;;;;;;;;5077161;28;20016;-71
2023/03/08 11:19:35;;;;;;;5.30;2.80;;;;;;;;;;5076446;28;20031;-72
2023/03/08 11:22:27;;;;;;;4.05;2.60;;;;;;;;;;5076177;28;20021;-71
2023/03/08 11:25:21;;;;;;;5.35;2.80;;;;;;;;;;5076474;28;20039;-71
2023/03/08 11:28:10;;;;;;;5.20;2.90;;;;;;;;;;5076445;28;20445;-72
2023/03/08 11:30:55;;;;;;;3.72;2.35;;;;;;;;;;5076333;28;20103;-71
2023/03/08 11:33:41;;;;;;;4.50;2.60;;;;;;;;;;5076316;28;20334;-71
2023/03/08 11:36:30;;;;;;;7.75;3.00;;;;;;;;;;5075932;28;20345;-69
2023/03/08 11:39:20;;;;;;;7.32;2.65;;;;;;;;;;5075959;28;20021;-70
2023/03/08 11:42:05;;;;;;;3.72;2.13;;;;;;;;;;5061151;28;20044;-72
2023/03/08 11:44:54;;;;;;;6.78;2.70;;;;;;;;;;5075857;28;20487;-70
2023/03/08 11:47:47;;;;;;;3.42;2.50;;;;;;;;;;5076403;28;20052;-71
2023/03/08 11:50:42;;;;;;;3.83;2.35;;;;;;;;;;5075354;28;20016;-71
2023/03/08 11:53:34;;;;;;;4.45;2.60;;;;;;;;;;5076387;28;20024;-73
2023/03/08 11:56:31;;;;;;;5.45;2.67;;;;;;;;;;5075218;28;20319;-73
2023/03/08 11:59:20;;;;;;;5.18;2.90;;;;;;;;;;5075266;28;20027;-72
2023/03/08 12:02:05;;;;;;;5.32;2.65;;;;;;;;;;5076064;28;20326;-74
2023/03/08 12:05:10;;;;;;;5.95;2.75;;;;;;;;;;5060954;28;20028;-73
2023/03/08 12:08:04;;;;;;;4.50;2.55;;;;;;;;;;5074818;28;20151;-74
2023/03/08 12:10:53;;;;;;;4.68;2.50;;;;;;;;;;5076478;28;20353;-73
2023/03/08 12:13:42;;;;;;;5.43;2.53;;;;;;;;;;5076539;28;20020;-73
2023/03/08 12:16:34;;;;;;;8.40;2.42;;;;;;;;;;5074801;28;20036;-72
2023/03/08 12:19:27;;;;;;;4.65;2.60;;;;;;;;;;5075680;28;20074;-73
2023/03/08 12:22:20;;;;;;;7.78;2.50;;;;;;;;;;5075440;28;20107;-72
2023/03/08 12:25:19;;;;;;;5.00;2.00;;;;;;;;;;5074571;28;20028;-73
2023/03/08 12:28:12;;;;;;;4.32;2.03;;;;;;;;;;5074316;28;20035;-72
2023/03/08 12:31:18;;;;;;;10.73;2.50;;;;;;;;;;5061706;28;20093;-72
2023/03/08 12:34:11;;;;;;;6.72;2.00;;;;;;;;;;5077048;28;20032;-72
2023/03/08 12:36:57;;;;;;;6.07;1.90;;;;;;;;;;5087862;28;20019;-73
2023/03/08 12:39:53;;;;;;;5.10;2.55;;;;;;;;;;5085010;28;20052;-73
2023/03/08 12:42:39;;;;;;;8.32;2.50;;;;;;;;;;5075385;28;20020;-73
2023/03/08 12:45:27;;;;;;;6.90;2.30;;;;;;;;;;5075879;28;20107;-73
2023/03/08 12:48:23;;;;;;;7.03;2.35;;;;;;;;;;5074398;28;20357;-73
2023/03/08 12:51:11;;;;;;;5.78;2.63;;;;;;;;;;5074586;28;20032;-73
2023/03/08 12:53:59;;;;;;;10.23;2.55;;;;;;;;;;5074857;28;20013;-71
2023/03/08 12:56:49;;;;;;;4.30;2.38;;;;;;;;;;5075332;28;20318;-73
2023/03/08 12:59:37;;;;;;;6.32;2.50;;;;;;;;;;5076051;28;20035;-72
2023/03/08 13:02:22;;;;;;;7.28;2.90;;;;;;;;;;5074569;28;20025;-73
2023/03/08 13:05:19;;;;;;;9.40;3.35;;;;;;;;;;5075919;28;20024;-72
2023/03/08 13:08:13;;;;;;;5.70;2.60;;;;;;;;;;5060841;28;20145;-73
2023/03/08 13:11:09;;;;;;;6.47;2.40;;;;;;;;;;5059288;28;20508;-72
2023/03/08 13:13:56;;;;;;;5.72;2.70;;;;;;;;;;5060493;28;20029;-72
2023/03/08 13:16:42;;;;;;;6.10;2.80;;;;;;;;;;5060812;28;20111;-72
2023/03/08 13:19:29;;;;;;;5.45;2.75;;;;;;;;;;5073448;28;20047;-72
2023/03/08 13:22:19;;;;;;;6.13;2.80;;;;;;;;;;5060343;28;20028;-73
2023/03/08 13:25:24;;;;;;;7.10;3.30;;;;;;;;;;5060028;28;20023;-73
2023/03/08 13:28:14;;;;;;;8.50;2.80;;;;;;;;;;5073791;28;20351;-72
2023/03/08 13:31:09;;;;;;;8.55;2.38;;;;;;;;;;5074689;28;20055;-73
2023/03/08 13:33:56;;;;;;;5.22;2.55;;;;;;;;;;5075127;28;20330;-72
2023/03/08 13:36:46;;;;;;;8.05;2.42;;;;;;;;;;5072368;28;20070;-74
2023/03/08 13:39:32;;;;;;;3.78;2.20;;;;;;;;;;5062744;28;20083;-74
2023/03/08 13:42:23;;;;;;;9.00;3.90;;;;;;;;;;5077182;28;20104;-74
2023/03/08 13:45:14;;;;;;;3.95;2.20;;;;;;;;;;5078077;28;20338;-79
2023/03/08 13:48:02;;;;;;;3.78;2.10;;;;;;;;;;5078047;28;20021;-75
2023/03/08 13:50:51;;;;;;;6.85;2.50;;;;;;;;;;5063320;28;20346;-73
2023/03/08 13:53:39;;;;;;;4.13;2.22;;;;;;;;;;5076444;28;20018;-76
2023/03/08 13:56:25;;;;;;;3.63;2.42;;;;;;;;;;5076972;28;20078;-74
2023/03/08 13:59:18;;;;;;;6.35;2.47;;;;;;;;;;5076953;28;20082;-74
2023/03/08 14:02:15;;;;;;;6.82;2.40;;;;;;;;;;5077159;28;20032;-75
2023/03/08 14:05:01;;;;;;;10.43;2.67;;;;;;;;;;5076987;28;20020;-75
2023/03/08 14:08:01;;;;;;;6.63;3.35;;;;;;;;;;5086367;28;20040;-73
2023/03/08 14:10:50;;;;;;;6.22;2.50;;;;;;;;;;5094691;28;20020;-73
2023/03/08 14:13:36;;;;;;;9.50;5.55;;;;;;;;;;5118396;28;20460;-73
2023/03/08 14:16:33;;;;;;;8.27;3.80;;;;;;;;;;5118696;28;20015;-74
2023/03/08 14:19:24;;;;;;;5.28;2.65;;;;;;;;;;5118764;28;20045;-73
2023/03/08 14:22:14;;;;;;;9.85;3.28;;;;;;;;;;5117994;28;20038;-74
2023/03/08 14:25:01;;;;;;;6.30;2.50;;;;;;;;;;5117619;28;20101;-73
2023/03/08 14:27:47;;;;;;;5.50;2.63;;;;;;;;;;5118119;28;20027;-73
2023/03/08 14:30:32;;;;;;;4.90;2.55;;;;;;;;;;5117822;28;20023;-76
2023/03/08 14:33:19;;;;;;;7.28;2.90;;;;;;;;;;5102699;28;20138;-74
2023/03/08 14:36:05;;;;;;;5.28;2.42;;;;;;;;;;5117771;28;20012;-76
2023/03/08 14:38:51;;;;;;;3.90;2.28;;;;;;;;;;5118043;28;20019;-75
2023/03/08 14:41:36;;;;;;;4.25;2.38;;;;;;;;;;5117996;28;20045;-72
2023/03/08 14:44:27;;;;;;;5.70;2.70;;;;;;;;;;5117903;28;20095;-72
2023/03/08 14:47:31;;;;;;;8.15;2.50;;;;;;;;;;5116940;28;20031;-71
2023/03/08 14:50:17;;;;;;;11.38;2.20;;;;;;;;;;5118027;28;20111;-72
2023/03/08 14:53:03;;;;;;;6.60;2.60;;;;;;;;;;5117768;28;20371;-72
2023/03/08 14:55:48;;;;;;;7.88;2.47;;;;;;;;;;5117665;28;20031;-71
2023/03/08 14:58:36;;;;;;;5.30;2.47;;;;;;;;;;5117771;28;20128;-70
2023/03/08 15:01:32;;;;;;;5.38;2.50;;;;;;;;;;5117640;28;20467;-72
2023/03/08 15:04:19;;;;;;;13.95;3.05;;;;;;;;;;5100760;28;20028;-75
2023/03/08 15:07:05;;;;;;;11.25;3.03;;;;;;;;;;5101594;28;20047;-74
2023/03/08 15:09:51;;;;;;;6.28;2.90;;;;;;;;;;5115293;28;20110;-74
2023/03/08 15:12:37;;;;;;;10.43;2.80;;;;;;;;;;5115465;28;20027;-73
2023/03/08 15:15:22;;;;;;;4.55;2.58;;;;;;;;;;5115692;28;20020;-72
2023/03/08 15:18:08;;;;;;;8.77;2.25;;;;;;;;;;5114710;28;20031;-74
2023/03/08 15:20:54;;;;;;;4.00;2.53;;;;;;;;;;5115176;28;20042;-74
2023/03/08 15:23:40;;;;;;;7.68;2.63;;;;;;;;;;5101696;28;20059;-73
2023/03/08 15:26:27;;;;;;;8.32;2.70;;;;;;;;;;5101901;28;20020;-74
2023/03/08 15:29:19;;;;;;;7.45;3.05;;;;;;;;;;5115379;28;20034;-74
2023/03/08 15:32:05;;;;;;;7.85;3.63;;;;;;;;;;5115878;28;20016;-75
2023/03/08 15:34:50;;;;;;;11.95;4.47;;;;;;;;;;5117228;28;20498;-74
2023/03/08 15:37:36;;;;;;;8.10;3.42;;;;;;;;;;5124633;28;20012;-74
2023/03/08 15:40:23;;;;;;;11.77;3.80;;;;;;;;;;5116294;28;20027;-73
2023/03/08 15:43:08;;;;;;;8.32;3.65;;;;;;;;;;5115165;28;20023;-73
2023/03/08 15:45:54;;;;;;;13.25;3.63;;;;;;;;;;5115056;28;20027;-72
2023/03/08 15:48:40;;;;;;;13.65;4.35;;;;;;;;;;5100334;28;20026;-73
2023/03/08 15:51:32;;;;;;;6.60;3.25;;;;;;;;;;5111323;28;20020;-75
2023/03/08 15:54:18;;;;;;;9.60;4.20;;;;;;;;;;5095608;28;20016;-74
2023/03/08 15:57:03;;;;;;;9.68;3.90;;;;;;;;;;5102486;28;20089;-73
2023/03/08 15:59:50;;;;;;;6.90;4.00;;;;;;;;;;5096065;28;20058;-73
2023/03/08 16:02:36;;;;;;;14.23;6.22;;;;;;;;;;5096441;28;20079;-73
2023/03/08 16:05:23;;;;;;;15.77;4.70;;;;;;;;;;5081792;28;20028;-74
2023/03/08 16:08:09;;;;;;;12.52;4.20;;;;;;;;;;5094584;28;20040;-73
2023/03/08 16:10:55;;;;;;;17.98;4.53;;;;;;;;;;5095786;28;20099;-72
2023/03/08 16:13:41;;;;;;;34.00;5.75;;;;;;;;;;5095922;28;20058;-73
2023/03/08 16:16:26;;;;;;;21.15;5.50;;;;;;;;;;5095311;28;20054;-75
2023/03/08 16:19:12;;;;;;;27.58;5.07;;;;;;;;;;5095114;28;20028;-72
2023/03/08 16:21:58;;;;;;;17.05;5.40;;;;;;;;;;5095348;28;20401;-73
2023/03/08 16:24:44;;;;;;;19.52;5.80;;;;;;;;;;5094619;28;20073;-73
2023/03/08 16:27:38;;;;;;;30.42;5.80;;;;;;;;;;5082025;28;20433;-73
2023/03/08 16:30:24;;;;;;;28.55;6.03;;;;;;;;;;5096497;27;20065;-72
2023/03/08 16:33:09;;;;;;;27.55;8.15;;;;;;;;;;5079801;28;20416;-74
2023/03/08 16:35:55;;;;;;;30.50;7.38;;;;;;;;;;5079894;28;20094;-73